Time;durP1;ratioP1;P1;durP2;ratioP2;P2;SDS_P1;SDS_P2;PMS_P1;PMS_P2;Temp;Humidity;BMP_temperature;BMP_pressure;BME280_temperature;BME280_humidity;BME280_pressure;Samples;Min_cycle;Max_cycle;Signal;HPM_P1;HPM_P2
2024/03/30 00:00:08;;;;;;;0.90;0.90;;;9.90;99.90;;;;;;4981737;28;20464;-86
2024/03/30 00:02:35;;;;;;;6.53;0.90;;;9.80;99.90;;;;;;4998744;28;20449;-86
2024/03/30 00:05:02;;;;;;;0.70;0.63;;;9.90;99.90;;;;;;4998850;28;20449;-86
2024/03/30 00:07:29;;;;;;;2.23;0.80;;;9.90;99.90;;;;;;4980788;28;20493;-86
2024/03/30 00:09:55;;;;;;;2.93;0.70;;;9.90;99.90;;;;;;4979080;29;20486;-85
2024/03/30 00:12:22;;;;;;;1.83;1.13;;;9.80;99.90;;;;;;4978058;29;20446;-86
2024/03/30 00:14:50;;;;;;;0.90;0.67;;;9.80;99.90;;;;;;4966313;29;20221;-86
2024/03/30 00:17:16;;;;;;;2.33;1.00;;;9.70;99.90;;;;;;4965062;29;20946;-86
2024/03/30 00:19:42;;;;;;;3.03;0.87;;;9.70;99.90;;;;;;4964140;29;20477;-86
2024/03/30 00:22:10;;;;;;;0.93;0.80;;;9.60;99.90;;;;;;4964366;29;20518;-86
2024/03/30 00:24:36;;;;;;;3.07;1.00;;;9.60;99.90;;;;;;4964313;29;20206;-86
2024/03/30 00:27:03;;;;;;;3.60;1.00;;;9.60;99.90;;;;;;4962921;29;20484;-86
2024/03/30 00:29:29;;;;;;;0.80;0.80;;;9.50;99.90;;;;;;4962612;29;20233;-86
2024/03/30 00:31:55;;;;;;;4.50;0.90;;;9.50;99.90;;;;;;4962760;29;20829;-85
2024/03/30 00:34:21;;;;;;;6.90;1.70;;;9.50;99.90;;;;;;4961773;29;20217;-86
2024/03/30 00:36:48;;;;;;;5.73;1.30;;;9.50;99.90;;;;;;4962100;29;20482;-85
2024/03/30 00:39:15;;;;;;;3.57;1.00;;;9.50;99.90;;;;;;4961100;29;20310;-85
2024/03/30 00:41:42;;;;;;;1.23;0.90;;;9.50;99.90;;;;;;4961207;29;20505;-85
2024/03/30 00:44:07;;;;;;;5.83;0.80;;;9.40;99.90;;;;;;4960495;29;20449;-85
2024/03/30 00:46:34;;;;;;;2.10;1.23;;;9.40;99.90;;;;;;4973293;28;20485;-84
2024/03/30 00:49:00;;;;;;;3.30;1.00;;;9.40;99.90;;;;;;4979097;28;20221;-86
2024/03/30 00:51:27;;;;;;;1.43;0.83;;;9.40;99.90;;;;;;4979417;28;20863;-86
2024/03/30 00:53:53;;;;;;;4.10;0.80;;;9.40;99.90;;;;;;4978515;28;20204;-85
2024/03/30 00:56:21;;;;;;;7.73;1.33;;;9.40;99.90;;;;;;4978464;28;20535;-85
2024/03/30 00:58:47;;;;;;;10.30;1.03;;;9.40;99.90;;;;;;4978426;28;20226;-85
2024/03/30 01:01:16;;;;;;;4.40;1.30;;;9.40;99.90;;;;;;4978362;28;20460;-85
2024/03/30 01:03:42;;;;;;;7.33;1.23;;;9.40;99.90;;;;;;4977746;28;20656;-85
2024/03/30 01:06:09;;;;;;;7.87;2.00;;;9.30;99.90;;;;;;4969313;28;20446;-85
2024/03/30 01:08:35;;;;;;;4.00;1.60;;;9.30;99.90;;;;;;4958735;29;20494;-85
2024/03/30 01:11:04;;;;;;;3.03;1.50;;;9.40;99.90;;;;;;4958273;29;20457;-84
2024/03/30 01:13:31;;;;;;;4.60;1.00;;;9.30;99.90;;;;;;4958875;29;20206;-85
2024/03/30 01:15:59;;;;;;;2.20;0.93;;;9.30;99.90;;;;;;4957534;28;20813;-85
2024/03/30 01:18:25;;;;;;;3.27;0.60;;;9.30;99.90;;;;;;4957330;28;20980;-85
2024/03/30 01:20:52;;;;;;;4.10;1.00;;;9.30;99.90;;;;;;4960972;28;20450;-86
2024/03/30 01:23:19;;;;;;;11.80;1.67;;;9.30;99.90;;;;;;4975853;28;20803;-86
2024/03/30 01:25:46;;;;;;;6.77;1.30;;;9.40;99.90;;;;;;4975663;28;20454;-85
2024/03/30 01:28:13;;;;;;;2.40;1.07;;;9.40;99.90;;;;;;4975485;28;20493;-85
2024/03/30 01:30:41;;;;;;;6.90;1.03;;;9.40;99.90;;;;;;4976109;28;20438;-85
2024/03/30 01:33:08;;;;;;;2.10;0.97;;;9.40;99.90;;;;;;4975301;28;20936;-85
2024/03/30 01:35:35;;;;;;;9.63;1.10;;;9.40;99.90;;;;;;4975676;28;20449;-86
2024/03/30 01:38:01;;;;;;;8.63;1.00;;;9.40;99.90;;;;;;4956549;28;20438;-86
2024/03/30 01:40:32;;;;;;;9.60;1.33;;;9.40;99.90;;;;;;4956697;29;20441;-85
2024/03/30 01:42:58;;;;;;;3.63;1.60;;;9.40;99.90;;;;;;4956492;29;20246;-85
2024/03/30 01:45:27;;;;;;;7.10;1.33;;;9.40;99.90;;;;;;4956390;29;20450;-85
2024/03/30 01:47:54;;;;;;;4.10;1.20;;;9.50;99.90;;;;;;4956136;28;20228;-85
2024/03/30 01:50:21;;;;;;;1.53;0.87;;;9.50;99.90;;;;;;4966052;28;20440;-85
2024/03/30 01:52:47;;;;;;;4.87;1.50;;;9.50;99.90;;;;;;4960419;28;20454;-85
2024/03/30 01:55:13;;;;;;;12.83;2.00;;;9.50;99.90;;;;;;4956347;29;20448;-85
2024/03/30 01:57:39;;;;;;;9.13;1.50;;;9.50;99.90;;;;;;4955970;28;20572;-84
2024/03/30 02:00:08;;;;;;;30.57;2.73;;;9.60;99.90;;;;;;4960069;29;20924;-84
2024/03/30 02:02:34;;;;;;;12.87;1.83;;;9.70;99.90;;;;;;4959890;29;20478;-85
2024/03/30 02:05:03;;;;;;;16.93;1.27;;;9.80;99.90;;;;;;4959985;29;20450;-85
2024/03/30 02:07:29;;;;;;;5.93;1.77;;;9.90;99.90;;;;;;4960727;28;20844;-85
2024/03/30 02:09:56;;;;;;;11.73;1.90;;;10.00;99.90;;;;;;4960181;29;20473;-84
2024/03/30 02:12:22;;;;;;;9.67;1.40;;;10.10;99.90;;;;;;4961760;29;20289;-85
2024/03/30 02:14:49;;;;;;;14.60;1.60;;;10.10;99.90;;;;;;4960193;29;20971;-85
2024/03/30 02:17:15;;;;;;;15.00;2.60;;;10.10;99.90;;;;;;4980429;28;20211;-85
2024/03/30 02:19:45;;;;;;;3.27;1.43;;;10.10;99.90;;;;;;4983518;28;20454;-84
2024/03/30 02:22:16;;;;;;;7.53;1.33;;;10.00;99.90;;;;;;4983563;28;20206;-85
2024/03/30 02:24:45;;;;;;;7.27;1.00;;;9.90;99.90;;;;;;4974408;29;20458;-86
2024/03/30 02:27:10;;;;;;;15.93;2.43;;;9.80;99.90;;;;;;4964739;29;20497;-86
2024/03/30 02:29:40;;;;;;;5.17;1.40;;;9.80;99.90;;;;;;4963813;29;20458;-86
2024/03/30 02:32:06;;;;;;;7.10;1.07;;;9.70;99.90;;;;;;4962366;29;20211;-85
2024/03/30 02:34:33;;;;;;;7.30;1.30;;;9.70;99.90;;;;;;4962124;29;20468;-85
2024/03/30 02:36:59;;;;;;;8.23;1.33;;;9.70;99.90;;;;;;4961291;29;20442;-85
2024/03/30 02:39:26;;;;;;;19.63;1.13;;;9.70;99.90;;;;;;4961023;29;20990;-85
2024/03/30 02:41:53;;;;;;;4.10;1.20;;;9.70;99.90;;;;;;4960935;29;20454;-85
2024/03/30 02:44:20;;;;;;;8.93;2.30;;;9.70;99.90;;;;;;4960834;29;20446;-86
2024/03/30 02:46:47;;;;;;;7.53;0.97;;;9.70;99.90;;;;;;4960640;29;20872;-85
2024/03/30 02:49:14;;;;;;;6.93;1.20;;;9.70;99.90;;;;;;4960971;29;20473;-85
2024/03/30 02:51:40;;;;;;;14.27;1.90;;;9.60;99.90;;;;;;4959961;29;20820;-84
2024/03/30 02:54:07;;;;;;;6.10;1.27;;;9.60;99.90;;;;;;4959706;29;20450;-84
2024/03/30 02:56:33;;;;;;;4.20;1.47;;;9.60;99.90;;;;;;4959486;29;20214;-85
2024/03/30 02:59:01;;;;;;;7.57;1.60;;;9.50;99.90;;;;;;4959282;29;20478;-85
2024/03/30 03:01:27;;;;;;;14.20;3.57;;;9.60;99.90;;;;;;4959249;29;20203;-84
2024/03/30 03:03:54;;;;;;;9.70;2.17;;;9.60;99.90;;;;;;4959001;29;20443;-85
2024/03/30 03:06:20;;;;;;;9.37;2.40;;;9.70;99.90;;;;;;4959160;29;20461;-85
2024/03/30 03:09:43;;;;;;;9.97;1.90;;;9.80;99.90;;;;;;4959179;29;20482;-85
2024/03/30 03:12:09;;;;;;;9.90;1.80;;;9.90;99.90;;;;;;4958848;29;20580;-85
2024/03/30 03:14:37;;;;;;;5.80;1.20;;;10.10;99.90;;;;;;4958925;29;20511;-85
2024/03/30 03:17:03;;;;;;;9.50;1.20;;;10.30;99.90;;;;;;4959147;29;20795;-86
2024/03/30 03:19:29;;;;;;;12.00;1.67;;;10.50;99.90;;;;;;4958776;29;20457;-85
2024/03/30 03:21:55;;;;;;;8.53;2.20;;;10.80;99.90;;;;;;4958373;29;20685;-85
2024/03/30 03:24:22;;;;;;;4.63;1.10;;;10.90;99.90;;;;;;4958096;29;20430;-85
2024/03/30 03:26:48;;;;;;;11.10;1.23;;;11.10;99.90;;;;;;4957977;29;20242;-85
2024/03/30 03:29:14;;;;;;;17.10;1.90;;;11.30;99.90;;;;;;4958165;29;20501;-85
2024/03/30 03:31:41;;;;;;;7.17;1.13;;;11.40;99.90;;;;;;4958423;29;20203;-84
2024/03/30 03:34:08;;;;;;;8.53;1.27;;;11.50;99.90;;;;;;4959611;29;20460;-84
2024/03/30 03:36:34;;;;;;;11.17;1.37;;;11.70;99.90;;;;;;4959540;29;20470;-85
2024/03/30 03:39:00;;;;;;;6.63;1.60;;;11.90;99.90;;;;;;4959235;29;21105;-84
2024/03/30 03:41:26;;;;;;;10.33;1.10;;;12.00;99.90;;;;;;4958887;29;20684;-85
2024/03/30 03:43:53;;;;;;;6.70;1.13;;;12.10;99.90;;;;;;4959502;29;20437;-85
2024/03/30 03:46:18;;;;;;;10.30;1.47;;;12.10;99.90;;;;;;4960068;29;20629;-85
2024/03/30 03:48:46;;;;;;;8.30;1.33;;;12.10;99.90;;;;;;4959445;29;20501;-85
2024/03/30 03:51:13;;;;;;;6.90;1.70;;;12.20;99.90;;;;;;4959600;29;20206;-85
2024/03/30 03:53:39;;;;;;;19.37;1.90;;;12.20;99.90;;;;;;4960342;29;20485;-84
2024/03/30 03:56:05;;;;;;;7.97;1.83;;;12.20;99.90;;;;;;4959490;29;20960;-84
2024/03/30 03:58:32;;;;;;;9.40;1.57;;;12.30;99.90;;;;;;4959246;29;21058;-84
2024/03/30 04:01:03;;;;;;;8.73;1.33;;;12.30;99.90;;;;;;4959504;29;20473;-85
2024/03/30 04:03:30;;;;;;;8.73;1.40;;;12.30;99.90;;;;;;4960150;29;20522;-84
2024/03/30 04:05:57;;;;;;;10.53;1.80;;;12.30;99.90;;;;;;4959556;29;20453;-84
2024/03/30 04:08:24;;;;;;;11.97;1.13;;;12.20;99.90;;;;;;4958671;29;20877;-84
2024/03/30 04:10:59;;;;;;;9.23;1.70;;;12.20;99.90;;;;;;4958889;29;20438;-84
2024/03/30 04:13:26;;;;;;;10.27;1.20;;;12.20;99.90;;;;;;4958522;29;20419;-85
2024/03/30 04:15:52;;;;;;;7.80;2.40;;;12.10;99.90;;;;;;4958457;29;20466;-85
2024/03/30 04:18:19;;;;;;;5.33;0.80;;;12.10;99.90;;;;;;4958478;29;20870;-85
2024/03/30 04:20:55;;;;;;;6.00;2.20;;;12.00;99.90;;;;;;4959209;29;20203;-85
2024/03/30 04:23:23;;;;;;;5.40;1.33;;;12.20;99.90;;;;;;4958353;29;20442;-84
2024/03/30 04:26:00;;;;;;;3.30;0.93;;;12.40;99.90;;;;;;4958841;29;20451;-85
2024/03/30 04:28:26;;;;;;;21.03;1.53;;;12.40;99.90;;;;;;4958526;29;20516;-84
2024/03/30 04:30:54;;;;;;;2.70;1.30;;;12.40;99.90;;;;;;4959149;29;20457;-85
2024/03/30 04:33:21;;;;;;;8.67;1.43;;;12.50;99.90;;;;;;4958648;29;20509;-84
2024/03/30 04:35:54;;;;;;;5.33;1.13;;;12.50;99.90;;;;;;4958468;29;20461;-84
2024/03/30 04:38:23;;;;;;;4.70;1.80;;;12.50;99.80;;;;;;4958096;29;20462;-84
2024/03/30 04:40:59;;;;;;;8.53;2.60;;;12.60;99.50;;;;;;4957885;29;20947;-84
2024/03/30 04:43:26;;;;;;;20.33;1.73;;;12.50;99.60;;;;;;4957869;29;20461;-84
2024/03/30 04:45:52;;;;;;;5.20;0.83;;;12.40;99.80;;;;;;4957980;29;20442;-84
2024/03/30 04:48:20;;;;;;;6.10;1.73;;;12.40;99.90;;;;;;4957563;29;20992;-85
2024/03/30 04:50:46;;;;;;;8.90;1.73;;;12.40;99.70;;;;;;4957887;29;20215;-85
2024/03/30 04:53:16;;;;;;;12.33;1.10;;;12.40;99.90;;;;;;4958909;29;20482;-84
2024/03/30 04:55:51;;;;;;;3.70;0.97;;;12.30;99.90;;;;;;4959710;29;20446;-84
2024/03/30 04:58:22;;;;;;;16.27;1.17;;;12.20;99.90;;;;;;4957387;29;20469;-85
2024/03/30 05:00:48;;;;;;;0.70;0.60;;;12.10;99.90;;;;;;4960891;29;20825;-85
2024/03/30 05:03:15;;;;;;;10.13;1.83;;;12.00;99.90;;;;;;4957107;29;20453;-85
2024/03/30 05:05:42;;;;;;;8.77;1.83;;;11.90;99.90;;;;;;4957104;29;20269;-84
2024/03/30 05:08:09;;;;;;;10.10;1.10;;;11.70;99.90;;;;;;4957118;29;20862;-85
2024/03/30 05:10:36;;;;;;;9.93;1.27;;;11.70;99.90;;;;;;4956646;29;20484;-85
2024/03/30 05:13:05;;;;;;;5.10;0.87;;;11.50;99.90;;;;;;4957210;29;20549;-85
2024/03/30 05:15:31;;;;;;;4.10;1.77;;;11.40;99.90;;;;;;4956579;29;20490;-85
2024/03/30 05:17:58;;;;;;;3.80;1.60;;;11.30;99.90;;;;;;4956376;29;20474;-85
2024/03/30 05:23:09;;;;;;;5.70;1.13;;;11.10;99.90;;;;;;4956443;29;20809;-85
2024/03/30 05:25:36;;;;;;;12.40;1.63;;;11.10;99.90;;;;;;4956423;29;20450;-85
2024/03/30 05:28:05;;;;;;;4.73;1.00;;;11.00;99.90;;;;;;4956061;29;21015;-85
2024/03/30 05:30:32;;;;;;;18.67;1.73;;;10.90;99.90;;;;;;4959625;29;20815;-85
2024/03/30 05:32:57;;;;;;;9.63;1.20;;;10.80;99.90;;;;;;4956320;29;20449;-85
2024/03/30 05:35:24;;;;;;;5.13;0.80;;;10.80;99.90;;;;;;4955956;29;20450;-85
2024/03/30 05:37:50;;;;;;;7.63;1.13;;;10.90;99.90;;;;;;4956278;29;20209;-85
2024/03/30 05:40:16;;;;;;;13.77;2.73;;;10.90;99.90;;;;;;4956148;29;20450;-85
2024/03/30 05:42:42;;;;;;;6.30;1.00;;;11.00;99.90;;;;;;4956163;29;20550;-86
2024/03/30 05:45:10;;;;;;;6.27;1.00;;;11.00;99.90;;;;;;4955963;29;20454;-85
2024/03/30 05:47:36;;;;;;;5.60;0.80;;;11.00;99.90;;;;;;4956101;29;20245;-85
2024/03/30 05:50:03;;;;;;;6.17;1.27;;;11.00;99.90;;;;;;4956452;29;20478;-85
2024/03/30 05:52:29;;;;;;;14.20;1.17;;;11.10;99.90;;;;;;4955800;29;20680;-85
2024/03/30 05:54:56;;;;;;;3.97;0.90;;;11.20;99.90;;;;;;4955889;29;20489;-85
2024/03/30 05:57:22;;;;;;;7.60;1.43;;;11.40;99.90;;;;;;4956280;29;20609;-85
2024/03/30 05:59:48;;;;;;;5.50;1.13;;;11.60;99.90;;;;;;4956199;29;20485;-85
2024/03/30 06:02:15;;;;;;;4.33;1.10;;;11.70;99.90;;;;;;4956195;29;20206;-85
2024/03/30 06:04:42;;;;;;;2.13;0.70;;;11.90;99.90;;;;;;4956315;29;20545;-85
2024/03/30 06:07:08;;;;;;;13.37;1.10;;;12.00;99.90;;;;;;4956010;29;20932;-85
2024/03/30 06:09:36;;;;;;;5.50;1.53;;;12.10;99.90;;;;;;4956125;29;20482;-85
2024/03/30 06:12:02;;;;;;;13.30;1.63;;;12.20;99.90;;;;;;4956156;29;20475;-85
2024/03/30 06:14:30;;;;;;;4.63;1.27;;;12.30;99.90;;;;;;4956546;29;20430;-85
2024/03/30 06:16:55;;;;;;;7.33;1.00;;;12.50;99.90;;;;;;4956549;29;20482;-85
2024/03/30 06:19:24;;;;;;;2.30;0.70;;;12.60;99.90;;;;;;4958014;29;20493;-85
2024/03/30 06:21:50;;;;;;;7.17;1.37;;;12.70;99.90;;;;;;4961730;29;20209;-85
2024/03/30 06:24:16;;;;;;;6.87;1.33;;;12.80;99.90;;;;;;4961987;29;20816;-85
2024/03/30 06:26:42;;;;;;;3.07;1.27;;;12.90;99.90;;;;;;4961617;29;20199;-85
2024/03/30 06:29:09;;;;;;;9.57;0.87;;;12.90;99.90;;;;;;4962785;29;20490;-85
2024/03/30 06:31:35;;;;;;;14.57;1.30;;;13.00;99.90;;;;;;4961615;29;20199;-85
2024/03/30 06:34:04;;;;;;;13.20;2.33;;;13.10;99.90;;;;;;4961947;29;20460;-85
2024/03/30 06:36:32;;;;;;;7.17;1.60;;;13.20;99.90;;;;;;4961296;29;20211;-85
2024/03/30 06:39:00;;;;;;;4.83;0.80;;;13.30;99.90;;;;;;4962693;29;20498;-85
2024/03/30 06:44:11;;;;;;;5.03;1.03;;;13.40;99.90;;;;;;4963175;28;20783;-85
2024/03/30 06:46:38;;;;;;;9.87;1.27;;;13.40;99.90;;;;;;4964353;29;21014;-85
2024/03/30 06:49:04;;;;;;;5.17;1.30;;;13.60;99.90;;;;;;4965475;29;20522;-85
2024/03/30 06:51:32;;;;;;;11.53;1.37;;;13.70;99.90;;;;;;4964932;29;20457;-85
2024/03/30 06:53:59;;;;;;;13.07;1.20;;;13.70;99.90;;;;;;4964775;29;20443;-84
2024/03/30 06:56:25;;;;;;;3.07;0.90;;;13.80;99.90;;;;;;4964397;29;20450;-84
2024/03/30 06:58:52;;;;;;;14.27;1.63;;;13.90;99.90;;;;;;4964334;29;20466;-85
2024/03/30 07:01:17;;;;;;;13.07;1.07;;;14.00;99.40;;;;;;4964283;29;20221;-84
2024/03/30 07:03:44;;;;;;;2.00;0.60;;;14.00;99.30;;;;;;4964577;29;20454;-84
2024/03/30 07:06:10;;;;;;;1.17;1.03;;;13.90;98.70;;;;;;4963958;29;20238;-85
2024/03/30 07:08:38;;;;;;;12.67;1.37;;;13.90;98.70;;;;;;4963835;29;20494;-84
2024/03/30 07:11:04;;;;;;;8.17;1.33;;;14.00;98.70;;;;;;4963980;29;20672;-85
2024/03/30 07:13:31;;;;;;;6.10;1.47;;;13.90;98.80;;;;;;4964055;29;20459;-85
2024/03/30 07:15:57;;;;;;;5.00;1.13;;;13.90;98.80;;;;;;4963895;29;20668;-84
2024/03/30 07:18:24;;;;;;;4.00;0.90;;;13.90;98.20;;;;;;4963141;29;20469;-84
2024/03/30 07:20:49;;;;;;;5.80;1.17;;;13.90;98.30;;;;;;4962879;29;20211;-84
2024/03/30 07:23:16;;;;;;;2.97;1.20;;;13.90;98.00;;;;;;4962674;29;20505;-84
2024/03/30 07:25:45;;;;;;;9.13;1.70;;;13.90;98.20;;;;;;4962690;29;20202;-84
2024/03/30 07:28:10;;;;;;;8.33;1.23;;;13.90;97.90;;;;;;4962535;29;20486;-84
2024/03/30 07:30:37;;;;;;;1.33;0.80;;;13.90;97.90;;;;;;4962675;29;20437;-84
2024/03/30 07:33:05;;;;;;;8.40;0.97;;;13.80;97.30;;;;;;4963035;29;20214;-84
2024/03/30 07:35:32;;;;;;;4.77;1.00;;;13.80;96.80;;;;;;4962651;29;20443;-84
2024/03/30 07:37:57;;;;;;;8.30;1.40;;;13.80;97.20;;;;;;4962257;29;20473;-85
2024/03/30 07:40:24;;;;;;;12.83;1.40;;;13.80;97.00;;;;;;4962409;29;20944;-85
2024/03/30 07:42:51;;;;;;;10.63;1.57;;;13.80;97.50;;;;;;4962074;29;20553;-85
2024/03/30 07:45:18;;;;;;;6.53;1.13;;;13.70;96.90;;;;;;4962456;29;20443;-85
2024/03/30 07:47:44;;;;;;;5.97;1.20;;;13.70;96.90;;;;;;4962275;29;20838;-85
2024/03/30 07:50:11;;;;;;;5.13;0.90;;;13.70;97.10;;;;;;4962664;29;20459;-85
2024/03/30 07:52:38;;;;;;;4.63;1.10;;;13.70;96.80;;;;;;4961914;29;20217;-84
2024/03/30 07:55:05;;;;;;;7.10;1.70;;;13.70;96.40;;;;;;4961109;29;20533;-85
2024/03/30 07:57:32;;;;;;;8.77;1.27;;;13.70;96.30;;;;;;4961317;28;20441;-85
2024/03/30 08:00:00;;;;;;;4.80;1.00;;;13.70;97.10;;;;;;4977339;28;20476;-85
2024/03/30 08:02:26;;;;;;;4.17;1.20;;;13.80;99.90;;;;;;4961517;29;20469;-85
2024/03/30 08:04:53;;;;;;;8.27;1.60;;;13.70;99.90;;;;;;4966012;28;20520;-85
2024/03/30 08:07:19;;;;;;;12.77;1.10;;;13.70;99.90;;;;;;4979872;28;20213;-85
2024/03/30 08:09:45;;;;;;;6.40;2.00;;;13.60;99.90;;;;;;4980471;28;20489;-85
2024/03/30 08:12:11;;;;;;;5.23;1.00;;;13.50;99.90;;;;;;4978252;28;20549;-86
2024/03/30 08:14:38;;;;;;;13.90;1.20;;;13.50;99.90;;;;;;4968932;28;20434;-85
2024/03/30 08:17:05;;;;;;;7.53;1.70;;;13.40;99.90;;;;;;4979881;28;20636;-85
2024/03/30 08:19:32;;;;;;;5.23;0.90;;;13.30;99.90;;;;;;4978953;28;21229;-85
2024/03/30 08:21:57;;;;;;;16.87;1.73;;;13.30;99.90;;;;;;4977269;28;20443;-85
2024/03/30 08:24:24;;;;;;;9.23;1.10;;;13.30;99.90;;;;;;4969973;29;20966;-85
2024/03/30 08:26:50;;;;;;;8.73;1.27;;;13.30;99.90;;;;;;4974500;28;20194;-85
2024/03/30 08:29:16;;;;;;;1.20;1.13;;;13.30;99.90;;;;;;4979830;28;20863;-83
2024/03/30 08:31:42;;;;;;;8.13;0.90;;;13.30;99.90;;;;;;4961135;29;20275;-85
2024/03/30 08:34:10;;;;;;;5.00;1.37;;;13.20;99.90;;;;;;4964767;28;20464;-85
2024/03/30 08:36:36;;;;;;;3.80;1.07;;;13.20;99.90;;;;;;4976504;28;20190;-85
2024/03/30 08:39:03;;;;;;;5.33;1.00;;;13.30;99.90;;;;;;4967156;28;20837;-85
2024/03/30 08:41:28;;;;;;;3.40;0.70;;;13.20;99.90;;;;;;4962299;28;20205;-85
2024/03/30 08:43:57;;;;;;;8.90;1.83;;;13.20;99.90;;;;;;4961135;29;20451;-85
2024/03/30 08:46:23;;;;;;;7.23;1.20;;;13.20;99.90;;;;;;4961647;29;20325;-85
2024/03/30 08:48:49;;;;;;;6.00;1.90;;;13.20;99.90;;;;;;4965640;28;20511;-85
2024/03/30 08:51:16;;;;;;;5.20;1.83;;;13.10;99.90;;;;;;4969134;28;20210;-85
2024/03/30 08:53:45;;;;;;;9.00;1.30;;;13.10;99.90;;;;;;4961410;29;20439;-85
2024/03/30 08:56:11;;;;;;;2.60;1.23;;;13.00;99.90;;;;;;4960690;29;20501;-85
2024/03/30 08:58:38;;;;;;;10.93;1.10;;;12.90;99.90;;;;;;4960825;29;20501;-85
2024/03/30 09:01:04;;;;;;;11.03;2.00;;;12.80;99.90;;;;;;4961903;28;20210;-85
2024/03/30 09:03:30;;;;;;;12.60;1.70;;;12.80;99.90;;;;;;4960756;29;20863;-85
2024/03/30 09:05:56;;;;;;;4.90;1.03;;;12.90;99.90;;;;;;4978795;28;20445;-85
2024/03/30 09:08:24;;;;;;;10.13;1.13;;;12.80;99.90;;;;;;4968082;28;20490;-85
2024/03/30 09:10:50;;;;;;;3.07;1.23;;;12.80;99.90;;;;;;4959972;29;20273;-85
2024/03/30 09:13:17;;;;;;;9.40;2.00;;;12.90;99.90;;;;;;4960795;29;20454;-85
2024/03/30 09:15:42;;;;;;;15.43;1.23;;;12.90;99.90;;;;;;4960396;29;20233;-85
2024/03/30 09:18:10;;;;;;;21.33;1.60;;;12.90;99.90;;;;;;4960180;29;20450;-85
2024/03/30 09:20:35;;;;;;;14.77;1.17;;;13.00;99.90;;;;;;4973344;28;20206;-85
2024/03/30 09:23:02;;;;;;;3.00;1.50;;;13.00;99.90;;;;;;4977945;28;20805;-85
2024/03/30 09:25:30;;;;;;;7.27;1.40;;;13.10;99.90;;;;;;4977870;28;20205;-85
2024/03/30 09:27:56;;;;;;;8.27;1.47;;;13.20;99.90;;;;;;4978344;28;20464;-85
2024/03/30 09:30:22;;;;;;;9.00;1.37;;;13.30;99.90;;;;;;4964908;28;20459;-85
2024/03/30 09:32:49;;;;;;;6.90;1.60;;;13.30;99.90;;;;;;4957363;29;20454;-85
2024/03/30 09:35:15;;;;;;;10.70;1.27;;;13.40;99.90;;;;;;4966388;28;20277;-85
2024/03/30 09:37:42;;;;;;;13.83;1.70;;;13.40;99.90;;;;;;4975471;28;20981;-85
2024/03/30 09:40:09;;;;;;;8.57;1.53;;;13.40;99.90;;;;;;4972381;28;20251;-86
2024/03/30 09:42:37;;;;;;;4.90;2.50;;;13.40;99.90;;;;;;4957079;29;20508;-85
2024/03/30 09:45:05;;;;;;;7.57;2.30;;;13.40;99.90;;;;;;4956846;29;20456;-86
2024/03/30 09:47:34;;;;;;;7.20;2.80;;;13.30;99.90;;;;;;4956449;29;21013;-86
2024/03/30 09:50:01;;;;;;;9.37;2.00;;;13.30;99.90;;;;;;4962284;28;20855;-85
2024/03/30 09:52:30;;;;;;;10.10;1.43;;;13.10;99.90;;;;;;4957522;28;20941;-86
2024/03/30 09:54:58;;;;;;;17.07;2.10;;;13.00;99.90;;;;;;4956552;28;20470;-86
2024/03/30 09:57:26;;;;;;;18.20;1.80;;;12.90;99.90;;;;;;4956719;29;20442;-85
2024/03/30 09:59:53;;;;;;;11.93;2.30;;;12.90;99.90;;;;;;4957702;28;20462;-85
2024/03/30 10:02:20;;;;;;;13.60;2.30;;;13.00;99.90;;;;;;4963887;28;20978;-85
2024/03/30 10:04:45;;;;;;;6.60;1.70;;;13.00;99.90;;;;;;4960232;28;20446;-85
2024/03/30 10:07:15;;;;;;;5.67;1.20;;;13.00;99.90;;;;;;4966774;28;20828;-85
2024/03/30 10:09:41;;;;;;;7.93;1.40;;;13.10;99.90;;;;;;4973434;28;20225;-85
2024/03/30 10:12:16;;;;;;;4.80;1.27;;;13.10;99.90;;;;;;4975223;28;20973;-85
2024/03/30 10:14:43;;;;;;;6.80;1.20;;;13.20;99.90;;;;;;4977654;28;20444;-86
2024/03/30 10:17:12;;;;;;;4.00;1.83;;;13.30;99.90;;;;;;4975717;28;20488;-85
2024/03/30 10:19:40;;;;;;;6.33;1.83;;;13.20;99.90;;;;;;4975299;28;20465;-85
2024/03/30 10:22:07;;;;;;;7.90;1.60;;;13.20;99.90;;;;;;4972511;28;20469;-85
2024/03/30 10:24:33;;;;;;;7.90;1.97;;;13.30;99.90;;;;;;4979085;28;20942;-85
2024/03/30 10:27:00;;;;;;;7.70;1.13;;;13.20;99.90;;;;;;4979568;28;20453;-85
2024/03/30 10:29:26;;;;;;;2.27;1.20;;;13.30;99.90;;;;;;4962071;28;20486;-85
2024/03/30 10:31:52;;;;;;;5.10;1.63;;;13.30;99.90;;;;;;4960130;28;20786;-85
2024/03/30 10:34:20;;;;;;;10.97;1.70;;;13.30;99.90;;;;;;4974167;28;20206;-85
2024/03/30 10:36:48;;;;;;;5.33;1.70;;;13.30;99.90;;;;;;4979041;28;20457;-85
2024/03/30 10:39:14;;;;;;;2.57;1.47;;;13.30;99.90;;;;;;4984404;28;20477;-85
2024/03/30 10:41:42;;;;;;;7.40;2.10;;;13.30;99.90;;;;;;4984207;28;20856;-85
2024/03/30 10:44:08;;;;;;;9.40;2.20;;;13.30;99.90;;;;;;4978651;28;20511;-85
2024/03/30 10:46:35;;;;;;;18.13;2.27;;;13.30;99.90;;;;;;4978463;28;20512;-85
2024/03/30 10:49:01;;;;;;;5.97;1.87;;;13.40;99.90;;;;;;4963973;28;20771;-85
2024/03/30 10:51:29;;;;;;;5.60;1.30;;;13.40;99.90;;;;;;4959672;29;20434;-85
2024/03/30 10:54:03;;;;;;;7.77;1.90;;;13.40;99.90;;;;;;4964056;28;20672;-85
2024/03/30 10:56:30;;;;;;;5.40;1.40;;;13.50;99.90;;;;;;4964157;28;20418;-85
2024/03/30 10:58:59;;;;;;;17.60;2.40;;;13.60;99.90;;;;;;4970727;28;20458;-85
2024/03/30 11:01:27;;;;;;;9.00;1.50;;;13.70;99.90;;;;;;4959167;29;20979;-86
2024/03/30 11:03:54;;;;;;;14.83;3.03;;;13.70;99.90;;;;;;4958718;29;20438;-85
2024/03/30 11:06:22;;;;;;;9.37;1.87;;;13.80;99.90;;;;;;4959236;29;20438;-85
2024/03/30 11:08:50;;;;;;;18.23;2.60;;;13.80;99.90;;;;;;4958738;29;20999;-87
2024/03/30 11:11:18;;;;;;;12.57;1.80;;;13.90;99.90;;;;;;4959584;29;20458;-87
2024/03/30 11:13:44;;;;;;;11.83;1.80;;;13.90;99.90;;;;;;4960266;29;20454;-85
2024/03/30 11:16:13;;;;;;;11.83;2.27;;;14.00;99.90;;;;;;4959490;29;20521;-85
2024/03/30 11:18:48;;;;;;;11.80;1.67;;;14.00;99.90;;;;;;4959466;29;20458;-85
2024/03/30 11:21:21;;;;;;;11.03;2.00;;;14.10;99.90;;;;;;4959705;29;20438;-85
2024/03/30 11:23:56;;;;;;;19.97;3.87;;;14.20;99.90;;;;;;4960056;29;20943;-85
2024/03/30 11:26:24;;;;;;;3.30;1.17;;;14.20;99.90;;;;;;4963813;29;20438;-85
2024/03/30 11:28:59;;;;;;;11.10;1.87;;;14.30;99.90;;;;;;4963967;29;20486;-85
2024/03/30 11:31:36;;;;;;;3.80;1.63;;;14.30;99.90;;;;;;4962553;28;20821;-85
2024/03/30 11:34:03;;;;;;;6.40;1.53;;;14.30;99.90;;;;;;4962836;29;20439;-85
2024/03/30 11:36:38;;;;;;;8.00;1.93;;;14.30;99.90;;;;;;4960952;29;20936;-85
2024/03/30 11:39:20;;;;;;;9.77;2.57;;;14.30;99.90;;;;;;4962472;29;20489;-85
2024/03/30 11:41:52;;;;;;;2.87;1.30;;;14.30;99.90;;;;;;4962526;29;20518;-85
2024/03/30 11:44:21;;;;;;;5.43;1.50;;;14.30;99.90;;;;;;4962141;29;20441;-85
2024/03/30 11:46:50;;;;;;;5.37;1.70;;;14.30;99.90;;;;;;4961804;29;20577;-85
2024/03/30 11:49:18;;;;;;;7.20;1.63;;;14.40;99.90;;;;;;4961711;29;20533;-85
2024/03/30 11:51:44;;;;;;;8.33;2.30;;;14.40;99.90;;;;;;4961542;29;20537;-85
2024/03/30 11:54:22;;;;;;;14.27;2.00;;;14.50;99.90;;;;;;4961313;29;20457;-85
2024/03/30 11:57:12;;;;;;;21.73;1.83;;;14.60;99.90;;;;;;4959141;29;20452;-85
2024/03/30 11:59:39;;;;;;;7.53;1.73;;;14.70;99.90;;;;;;4955795;29;20831;-85
2024/03/30 12:02:07;;;;;;;5.33;1.80;;;14.80;99.90;;;;;;4958265;29;20449;-85
2024/03/30 12:04:38;;;;;;;6.07;2.10;;;14.90;99.90;;;;;;4958316;29;20446;-85
2024/03/30 12:07:07;;;;;;;6.23;2.37;;;15.10;99.90;;;;;;4958698;29;20427;-85
2024/03/30 12:09:34;;;;;;;7.40;1.77;;;15.10;99.90;;;;;;4958271;29;20967;-85
2024/03/30 12:12:11;;;;;;;8.53;2.70;;;15.10;99.90;;;;;;4958180;29;20882;-85
2024/03/30 12:14:38;;;;;;;5.00;1.73;;;15.20;99.90;;;;;;4958142;29;20912;-85
2024/03/30 12:17:05;;;;;;;11.13;2.57;;;15.10;99.90;;;;;;4958655;29;20446;-85
2024/03/30 12:19:31;;;;;;;7.80;1.50;;;15.20;99.90;;;;;;4958164;29;20477;-85
2024/03/30 12:21:58;;;;;;;5.23;2.87;;;15.20;99.90;;;;;;4957692;29;20442;-85
2024/03/30 12:24:25;;;;;;;5.57;2.13;;;15.20;99.90;;;;;;4957902;29;20210;-85
2024/03/30 12:26:54;;;;;;;8.73;1.70;;;15.30;99.90;;;;;;4958043;29;20517;-85
2024/03/30 12:29:20;;;;;;;10.80;2.70;;;15.20;99.90;;;;;;4958453;29;20486;-85
2024/03/30 12:31:47;;;;;;;9.50;2.30;;;15.10;99.90;;;;;;4959059;29;20549;-85
2024/03/30 12:34:13;;;;;;;21.13;2.00;;;15.00;99.90;;;;;;4957585;29;20207;-85
2024/03/30 12:36:40;;;;;;;12.33;1.90;;;15.10;99.90;;;;;;4972467;29;20465;-85
2024/03/30 12:39:06;;;;;;;3.90;1.40;;;15.00;99.90;;;;;;4974029;29;20449;-85
2024/03/30 12:41:33;;;;;;;6.30;1.20;;;15.10;99.90;;;;;;4974087;29;20477;-85
2024/03/30 12:44:02;;;;;;;6.60;1.83;;;15.10;99.90;;;;;;4973539;28;20450;-85
2024/03/30 12:46:29;;;;;;;14.23;1.90;;;15.20;99.90;;;;;;4973766;29;20486;-85
2024/03/30 12:49:01;;;;;;;9.60;2.17;;;15.30;99.90;;;;;;4964561;29;20501;-85
2024/03/30 12:51:28;;;;;;;9.20;1.67;;;15.40;99.90;;;;;;4963944;29;20446;-85